sensor_id;sensor_type;location;lat;lon;timestamp;pressure;altitude;pressure_sealevel;temperature;humidity
11605;BME280;5858;43.076;25.626;2023-04-01T00:02:12;98361.81;;;10.60;83.90
11605;BME280;5858;43.076;25.626;2023-04-01T00:04:39;98340.84;;;10.50;83.75
11605;BME280;5858;43.076;25.626;2023-04-01T00:07:08;98361.59;;;10.61;83.89
11605;BME280;5858;43.076;25.626;2023-04-01T00:09:36;98329.31;;;10.50;83.84
11605;BME280;5858;43.076;25.626;2023-04-01T00:12:04;98335.06;;;10.53;83.99
11605;BME280;5858;43.076;25.626;2023-04-01T00:14:31;98241.06;;;9.90;84.44
11605;BME280;5858;43.076;25.626;2023-04-01T00:17:00;98335.06;;;10.53;84.39
11605;BME280;5858;43.076;25.626;2023-04-01T00:19:27;98276.03;;;10.15;84.58
11605;BME280;5858;43.076;25.626;2023-04-01T00:21:54;98337.75;;;10.53;83.95
11605;BME280;5858;43.076;25.626;2023-04-01T00:24:24;98248.47;;;10.01;83.86
11605;BME280;5858;43.076;25.626;2023-04-01T00:26:51;98335.66;;;10.68;83.22
11605;BME280;5858;43.076;25.626;2023-04-01T00:29:17;98321.50;;;10.55;83.80
11605;BME280;5858;43.076;25.626;2023-04-01T00:31:45;98313.06;;;10.51;84.29
11605;BME280;5858;43.076;25.626;2023-04-01T00:34:13;98337.72;;;10.66;84.10
11605;BME280;5858;43.076;25.626;2023-04-01T00:36:41;98307.28;;;10.61;83.90
11605;BME280;5858;43.076;25.626;2023-04-01T00:39:08;98309.34;;;10.52;84.05
11605;BME280;5858;43.076;25.626;2023-04-01T00:41:36;98300.31;;;10.47;84.45
11605;BME280;5858;43.076;25.626;2023-04-01T00:44:22;98263.91;;;10.32;84.42
11605;BME280;5858;43.076;25.626;2023-04-01T00:46:50;98312.84;;;10.59;84.79
11605;BME280;5858;43.076;25.626;2023-04-01T00:49:20;98307.69;;;10.58;84.48
11605;BME280;5858;43.076;25.626;2023-04-01T00:51:52;98280.75;;;10.33;84.92
11605;BME280;5858;43.076;25.626;2023-04-01T00:54:24;98271.50;;;10.29;84.92
11605;BME280;5858;43.076;25.626;2023-04-01T00:56:55;98301.75;;;10.49;85.33
11605;BME280;5858;43.076;25.626;2023-04-01T00:59:25;98298.25;;;10.55;84.42
11605;BME280;5858;43.076;25.626;2023-04-01T01:01:53;98197.06;;;9.93;84.55
11605;BME280;5858;43.076;25.626;2023-04-01T01:04:22;98274.59;;;10.46;84.66
11605;BME280;5858;43.076;25.626;2023-04-01T01:06:53;98268.22;;;10.53;82.91
11605;BME280;5858;43.076;25.626;2023-04-01T01:09:30;98240.25;;;10.49;82.86
11605;BME280;5858;43.076;25.626;2023-04-01T01:12:07;98241.06;;;10.50;82.63
11605;BME280;5858;43.076;25.626;2023-04-01T01:14:50;98176.91;;;10.17;82.27
11605;BME280;5858;43.076;25.626;2023-04-01T01:17:26;98285.63;;;10.89;81.80
11605;BME280;5858;43.076;25.626;2023-04-01T01:20:31;98265.44;;;10.86;81.45
11605;BME280;5858;43.076;25.626;2023-04-01T01:23:28;98253.28;;;10.84;81.12
11605;BME280;5858;43.076;25.626;2023-04-01T01:26:11;98273.41;;;11.06;81.06
11605;BME280;5858;43.076;25.626;2023-04-01T01:28:50;98188.78;;;10.60;80.52
11605;BME280;5858;43.076;25.626;2023-04-01T01:31:26;98266.38;;;11.12;80.31
11605;BME280;5858;43.076;25.626;2023-04-01T01:34:07;98208.88;;;10.76;79.44
11605;BME280;5858;43.076;25.626;2023-04-01T01:36:43;98261.59;;;11.20;80.33
11605;BME280;5858;43.076;25.626;2023-04-01T01:39:12;98263.84;;;11.23;80.14
11605;BME280;5858;43.076;25.626;2023-04-01T01:41:42;98232.69;;;10.97;80.47
11605;BME280;5858;43.076;25.626;2023-04-01T01:44:13;98162.84;;;10.61;80.17
11605;BME280;5858;43.076;25.626;2023-04-01T01:46:43;98266.13;;;11.20;80.46
11605;BME280;5858;43.076;25.626;2023-04-01T01:49:12;98264.97;;;11.09;80.48
11605;BME280;5858;43.076;25.626;2023-04-01T01:51:45;98267.59;;;11.16;80.28
11605;BME280;5858;43.076;25.626;2023-04-01T01:54:13;98263.47;;;11.20;80.17
11605;BME280;5858;43.076;25.626;2023-04-01T01:56:41;98202.47;;;10.77;80.33
11605;BME280;5858;43.076;25.626;2023-04-01T01:59:11;98262.25;;;11.16;80.69
11605;BME280;5858;43.076;25.626;2023-04-01T02:01:43;98167.22;;;10.49;81.10
11605;BME280;5858;43.076;25.626;2023-04-01T02:04:13;98240.53;;;10.92;81.15
11605;BME280;5858;43.076;25.626;2023-04-01T02:06:45;98261.47;;;11.02;81.52
11605;BME280;5858;43.076;25.626;2023-04-01T02:09:14;98256.81;;;10.91;81.66
11605;BME280;5858;43.076;25.626;2023-04-01T02:11:47;98254.72;;;10.93;81.51
11605;BME280;5858;43.076;25.626;2023-04-01T02:14:16;98105.41;;;10.05;81.89
11605;BME280;5858;43.076;25.626;2023-04-01T02:16:49;98249.34;;;10.99;82.27
11605;BME280;5858;43.076;25.626;2023-04-01T02:19:18;98163.53;;;10.36;81.50
11605;BME280;5858;43.076;25.626;2023-04-01T02:21:50;98241.34;;;10.93;81.08
11605;BME280;5858;43.076;25.626;2023-04-01T02:24:20;98159.81;;;10.44;80.98
11605;BME280;5858;43.076;25.626;2023-04-01T02:26:50;98240.91;;;11.02;81.66
11605;BME280;5858;43.076;25.626;2023-04-01T02:29:20;98206.56;;;10.93;80.50
11605;BME280;5858;43.076;25.626;2023-04-01T02:31:47;98215.41;;;10.93;80.55
11605;BME280;5858;43.076;25.626;2023-04-01T02:34:15;98147.03;;;10.53;80.36
11605;BME280;5858;43.076;25.626;2023-04-01T02:36:43;98221.13;;;11.03;80.03
11605;BME280;5858;43.076;25.626;2023-04-01T02:39:13;98201.84;;;10.88;80.40
11605;BME280;5858;43.076;25.626;2023-04-01T02:41:41;98204.84;;;11.05;80.62
11605;BME280;5858;43.076;25.626;2023-04-01T02:44:09;98119.44;;;10.59;80.39
11605;BME280;5858;43.076;25.626;2023-04-01T02:46:37;98171.75;;;10.93;80.85
11605;BME280;5858;43.076;25.626;2023-04-01T02:49:04;98196.44;;;11.01;81.07
11605;BME280;5858;43.076;25.626;2023-04-01T02:51:31;98203.38;;;11.09;80.90
11605;BME280;5858;43.076;25.626;2023-04-01T02:53:59;98185.94;;;11.00;80.54
11605;BME280;5858;43.076;25.626;2023-04-01T02:56:27;98169.56;;;10.77;80.72
11605;BME280;5858;43.076;25.626;2023-04-01T02:58:54;98144.09;;;10.67;80.34
11605;BME280;5858;43.076;25.626;2023-04-01T03:01:22;98187.16;;;11.04;80.07
11605;BME280;5858;43.076;25.626;2023-04-01T03:03:51;98195.91;;;11.18;79.21
11605;BME280;5858;43.076;25.626;2023-04-01T03:06:18;98205.81;;;11.17;79.15
11605;BME280;5858;43.076;25.626;2023-04-01T03:08:45;98193.81;;;11.26;79.42
11605;BME280;5858;43.076;25.626;2023-04-01T03:11:13;98183.78;;;11.15;79.48
11605;BME280;5858;43.076;25.626;2023-04-01T03:13:42;98204.06;;;11.36;79.14
11605;BME280;5858;43.076;25.626;2023-04-01T03:16:09;98197.47;;;11.32;79.53
11605;BME280;5858;43.076;25.626;2023-04-01T03:18:36;98161.00;;;11.06;79.16
11605;BME280;5858;43.076;25.626;2023-04-01T03:21:13;98169.94;;;11.25;78.61
11605;BME280;5858;43.076;25.626;2023-04-01T03:23:41;98160.91;;;11.19;78.69
11605;BME280;5858;43.076;25.626;2023-04-01T03:26:08;98165.78;;;11.29;79.00
11605;BME280;5858;43.076;25.626;2023-04-01T03:28:35;98167.72;;;11.15;78.87
11605;BME280;5858;43.076;25.626;2023-04-01T03:31:04;98159.66;;;11.22;78.74
11605;BME280;5858;43.076;25.626;2023-04-01T03:33:34;98184.50;;;11.35;78.82
11605;BME280;5858;43.076;25.626;2023-04-01T03:36:01;98169.53;;;11.21;78.77
11605;BME280;5858;43.076;25.626;2023-04-01T03:38:29;98200.34;;;11.37;78.59
11605;BME280;5858;43.076;25.626;2023-04-01T03:40:56;98187.41;;;11.27;77.98
11605;BME280;5858;43.076;25.626;2023-04-01T03:43:24;98158.41;;;11.24;77.62
11605;BME280;5858;43.076;25.626;2023-04-01T03:45:51;98167.81;;;11.33;77.59
11605;BME280;5858;43.076;25.626;2023-04-01T03:48:19;98203.75;;;11.51;77.49
11605;BME280;5858;43.076;25.626;2023-04-01T03:50:47;98168.84;;;11.32;77.51
11605;BME280;5858;43.076;25.626;2023-04-01T03:53:14;98200.59;;;11.60;77.11
11605;BME280;5858;43.076;25.626;2023-04-01T03:55:41;98204.81;;;11.50;77.66
11605;BME280;5858;43.076;25.626;2023-04-01T03:58:08;98206.44;;;11.51;77.66
11605;BME280;5858;43.076;25.626;2023-04-01T04:00:35;98119.19;;;11.05;77.04
11605;BME280;5858;43.076;25.626;2023-04-01T04:03:03;98195.63;;;11.64;76.79
11605;BME280;5858;43.076;25.626;2023-04-01T04:05:32;98181.78;;;11.67;76.59
11605;BME280;5858;43.076;25.626;2023-04-01T04:07:59;98112.28;;;11.22;75.90
11605;BME280;5858;43.076;25.626;2023-04-01T04:10:26;98182.34;;;11.76;75.73
11605;BME280;5858;43.076;25.626;2023-04-01T04:12:54;98187.69;;;11.76;75.88
11605;BME280;5858;43.076;25.626;2023-04-01T04:15:22;98173.91;;;11.72;75.66
11605;BME280;5858;43.076;25.626;2023-04-01T04:17:49;98185.84;;;11.83;76.21
11605;BME280;5858;43.076;25.626;2023-04-01T04:20:16;98180.31;;;11.71;76.57
11605;BME280;5858;43.076;25.626;2023-04-01T04:22:45;98165.63;;;11.80;76.28
11605;BME280;5858;43.076;25.626;2023-04-01T04:25:12;98184.38;;;11.87;76.33
11605;BME280;5858;43.076;25.626;2023-04-01T04:27:39;98192.06;;;12.02;75.58
11605;BME280;5858;43.076;25.626;2023-04-01T04:30:07;98187.97;;;11.99;75.51
11605;BME280;5858;43.076;25.626;2023-04-01T04:32:34;98189.75;;;12.05;75.04
11605;BME280;5858;43.076;25.626;2023-04-01T04:35:02;98179.69;;;12.01;75.37
11605;BME280;5858;43.076;25.626;2023-04-01T04:37:33;98196.09;;;12.11;74.01
11605;BME280;5858;43.076;25.626;2023-04-01T04:40:01;98191.94;;;12.15;74.76
11605;BME280;5858;43.076;25.626;2023-04-01T04:42:28;98195.00;;;12.18;74.01
11605;BME280;5858;43.076;25.626;2023-04-01T04:44:56;98175.84;;;12.15;74.51
11605;BME280;5858;43.076;25.626;2023-04-01T04:47:24;98179.06;;;12.23;74.23
11605;BME280;5858;43.076;25.626;2023-04-01T04:49:51;98183.25;;;12.38;73.39
11605;BME280;5858;43.076;25.626;2023-04-01T04:52:19;98153.88;;;12.24;73.43
11605;BME280;5858;43.076;25.626;2023-04-01T04:54:46;98147.38;;;12.14;73.78
11605;BME280;5858;43.076;25.626;2023-04-01T04:57:15;98184.91;;;12.57;73.23
11605;BME280;5858;43.076;25.626;2023-04-01T04:59:42;98179.00;;;12.67;73.04
11605;BME280;5858;43.076;25.626;2023-04-01T05:02:09;98174.53;;;12.79;72.22
11605;BME280;5858;43.076;25.626;2023-04-01T05:04:36;98176.91;;;12.87;71.80
11605;BME280;5858;43.076;25.626;2023-04-01T05:07:03;98169.38;;;12.96;71.05
11605;BME280;5858;43.076;25.626;2023-04-01T05:09:30;98125.84;;;12.75;70.87
11605;BME280;5858;43.076;25.626;2023-04-01T05:11:58;98161.81;;;13.04;70.78
11605;BME280;5858;43.076;25.626;2023-04-01T05:14:27;98165.00;;;13.13;70.81
11605;BME280;5858;43.076;25.626;2023-04-01T05:16:53;98135.09;;;13.09;69.71
11605;BME280;5858;43.076;25.626;2023-04-01T05:19:20;98150.75;;;13.31;69.74
11605;BME280;5858;43.076;25.626;2023-04-01T05:21:48;98154.84;;;13.33;69.79
11605;BME280;5858;43.076;25.626;2023-04-01T05:24:15;98154.38;;;13.36;69.92
11605;BME280;5858;43.076;25.626;2023-04-01T05:26:42;98157.66;;;13.50;68.90
11605;BME280;5858;43.076;25.626;2023-04-01T05:29:09;98122.38;;;13.35;69.26
11605;BME280;5858;43.076;25.626;2023-04-01T05:31:38;98153.47;;;13.54;69.05
11605;BME280;5858;43.076;25.626;2023-04-01T05:34:05;98145.88;;;13.63;69.07
11605;BME280;5858;43.076;25.626;2023-04-01T05:36:32;98122.63;;;13.68;67.38
11605;BME280;5858;43.076;25.626;2023-04-01T05:38:59;98126.28;;;13.85;67.76
11605;BME280;5858;43.076;25.626;2023-04-01T05:41:26;98131.44;;;13.99;67.30
11605;BME280;5858;43.076;25.626;2023-04-01T05:43:53;98126.41;;;14.02;66.74
11605;BME280;5858;43.076;25.626;2023-04-01T05:46:20;98109.44;;;14.13;64.66
11605;BME280;5858;43.076;25.626;2023-04-01T05:48:49;98031.81;;;13.70;65.20
11605;BME280;5858;43.076;25.626;2023-04-01T05:51:16;98139.69;;;14.56;62.66
11605;BME280;5858;43.076;25.626;2023-04-01T05:53:43;98135.81;;;14.75;62.47
11605;BME280;5858;43.076;25.626;2023-04-01T05:56:10;98135.53;;;14.88;62.63
11605;BME280;5858;43.076;25.626;2023-04-01T05:58:38;98127.38;;;15.00;60.54
11605;BME280;5858;43.076;25.626;2023-04-01T06:01:07;98115.13;;;14.92;61.47
11605;BME280;5858;43.076;25.626;2023-04-01T06:03:34;98076.47;;;14.70;60.76
11605;BME280;5858;43.076;25.626;2023-04-01T06:06:03;98126.56;;;14.99;60.74
11605;BME280;5858;43.076;25.626;2023-04-01T06:08:31;97994.25;;;14.10;60.86
11605;BME280;5858;43.076;25.626;2023-04-01T06:11:07;98126.56;;;14.99;61.69
11605;BME280;5858;43.076;25.626;2023-04-01T06:16:50;98024.97;;;14.26;60.58
11605;BME280;5858;43.076;25.626;2023-04-01T06:19:30;98103.50;;;14.75;61.97
11605;BME280;5858;43.076;25.626;2023-04-01T06:22:24;98098.09;;;14.75;62.10
11605;BME280;5858;43.076;25.626;2023-04-01T06:25:10;98126.09;;;15.02;62.68
11605;BME280;5858;43.076;25.626;2023-04-01T06:28:00;98119.25;;;15.11;61.11
11605;BME280;5858;43.076;25.626;2023-04-01T06:30:38;98101.09;;;14.90;61.59
11605;BME280;5858;43.076;25.626;2023-04-01T06:33:35;98119.41;;;15.05;62.56
11605;BME280;5858;43.076;25.626;2023-04-01T06:36:19;98109.06;;;15.14;63.19
11605;BME280;5858;43.076;25.626;2023-04-01T06:39:03;98105.91;;;15.17;63.67
11605;BME280;5858;43.076;25.626;2023-04-01T06:41:41;98110.31;;;15.23;63.87
11605;BME280;5858;43.076;25.626;2023-04-01T06:44:16;98086.75;;;15.01;61.25
11605;BME280;5858;43.076;25.626;2023-04-01T06:46:57;98114.66;;;15.40;61.41
11605;BME280;5858;43.076;25.626;2023-04-01T06:49:39;98101.91;;;15.36;60.88
11605;BME280;5858;43.076;25.626;2023-04-01T06:52:13;98098.81;;;15.44;60.60
11605;BME280;5858;43.076;25.626;2023-04-01T06:54:47;98026.75;;;15.06;61.88
11605;BME280;5858;43.076;25.626;2023-04-01T06:57:21;98102.66;;;15.48;60.23
11605;BME280;5858;43.076;25.626;2023-04-01T06:59:54;98095.31;;;15.60;59.83
11605;BME280;5858;43.076;25.626;2023-04-01T07:02:29;98103.03;;;15.68;59.51
11605;BME280;5858;43.076;25.626;2023-04-01T07:04:59;98105.31;;;15.77;58.70
11605;BME280;5858;43.076;25.626;2023-04-01T07:07:33;98086.84;;;15.68;59.39
11605;BME280;5858;43.076;25.626;2023-04-01T07:10:11;98046.78;;;15.43;60.32
11605;BME280;5858;43.076;25.626;2023-04-01T07:12:44;98039.81;;;15.48;60.43
11605;BME280;5858;43.076;25.626;2023-04-01T07:15:18;98097.94;;;15.89;59.68
11605;BME280;5858;43.076;25.626;2023-04-01T07:17:49;98087.53;;;15.97;60.71
11605;BME280;5858;43.076;25.626;2023-04-01T07:20:23;98096.38;;;16.10;62.73
11605;BME280;5858;43.076;25.626;2023-04-01T07:22:54;98028.16;;;15.76;64.46
11605;BME280;5858;43.076;25.626;2023-04-01T07:25:25;98102.78;;;16.25;64.35
11605;BME280;5858;43.076;25.626;2023-04-01T07:27:58;98086.75;;;16.19;64.12
11605;BME280;5858;43.076;25.626;2023-04-01T07:30:32;98073.91;;;16.26;60.27
11605;BME280;5858;43.076;25.626;2023-04-01T07:33:11;98060.47;;;16.31;56.82
11605;BME280;5858;43.076;25.626;2023-04-01T07:35:44;98074.97;;;16.47;56.45
11605;BME280;5858;43.076;25.626;2023-04-01T07:38:24;98051.09;;;16.38;55.91
11605;BME280;5858;43.076;25.626;2023-04-01T07:40:59;98067.47;;;16.71;56.77
11605;BME280;5858;43.076;25.626;2023-04-01T07:43:53;98066.50;;;16.82;57.00
11605;BME280;5858;43.076;25.626;2023-04-01T07:46:36;98055.31;;;17.00;54.61
11605;BME280;5858;43.076;25.626;2023-04-01T07:49:10;98046.91;;;16.96;53.29
11605;BME280;5858;43.076;25.626;2023-04-01T07:51:45;98043.09;;;16.92;51.52
11605;BME280;5858;43.076;25.626;2023-04-01T07:54:20;98058.78;;;17.22;50.42
11605;BME280;5858;43.076;25.626;2023-04-01T07:56:54;98048.41;;;17.41;50.05
11605;BME280;5858;43.076;25.626;2023-04-01T07:59:32;98034.06;;;17.73;49.36
11605;BME280;5858;43.076;25.626;2023-04-01T08:02:12;98008.25;;;18.02;47.37
11605;BME280;5858;43.076;25.626;2023-04-01T08:04:53;98005.31;;;18.09;46.93
11605;BME280;5858;43.076;25.626;2023-04-01T08:07:24;98008.91;;;18.24;46.29
11605;BME280;5858;43.076;25.626;2023-04-01T08:09:57;97951.72;;;18.06;46.31
11605;BME280;5858;43.076;25.626;2023-04-01T08:12:35;98018.69;;;18.41;45.63
11605;BME280;5858;43.076;25.626;2023-04-01T08:15:12;97990.38;;;18.74;45.15
11605;BME280;5858;43.076;25.626;2023-04-01T08:17:55;97914.41;;;18.38;43.35
11605;BME280;5858;43.076;25.626;2023-04-01T08:20:29;97976.03;;;18.83;43.42
11605;BME280;5858;43.076;25.626;2023-04-01T08:23:00;97967.38;;;19.07;43.27
11605;BME280;5858;43.076;25.626;2023-04-01T08:25:32;97977.66;;;19.50;42.84
11605;BME280;5858;43.076;25.626;2023-04-01T08:28:10;97975.16;;;19.85;41.17
11605;BME280;5858;43.076;25.626;2023-04-01T08:30:43;97979.66;;;20.20;40.39
11605;BME280;5858;43.076;25.626;2023-04-01T08:33:15;97969.00;;;20.38;38.99
11605;BME280;5858;43.076;25.626;2023-04-01T08:35:49;97963.63;;;20.78;37.75
11605;BME280;5858;43.076;25.626;2023-04-01T08:38:21;97966.03;;;21.18;36.87
11605;BME280;5858;43.076;25.626;2023-04-01T08:40:59;97941.75;;;21.32;35.90
11605;BME280;5858;43.076;25.626;2023-04-01T08:43:54;97960.19;;;21.64;37.06
11605;BME280;5858;43.076;25.626;2023-04-01T08:46:47;97964.28;;;21.90;37.75
11605;BME280;5858;43.076;25.626;2023-04-01T08:49:42;97917.06;;;21.76;37.20
11605;BME280;5858;43.076;25.626;2023-04-01T08:52:34;97940.34;;;21.87;36.11
11605;BME280;5858;43.076;25.626;2023-04-01T08:55:22;97888.16;;;21.27;36.91
11605;BME280;5858;43.076;25.626;2023-04-01T09:01:23;97961.38;;;21.82;37.31
11605;BME280;5858;43.076;25.626;2023-04-01T09:04:01;97956.91;;;21.91;38.46
11605;BME280;5858;43.076;25.626;2023-04-01T09:06:37;97951.41;;;21.96;39.31
11605;BME280;5858;43.076;25.626;2023-04-01T09:12:37;97942.94;;;22.21;36.52
11605;BME280;5858;43.076;25.626;2023-04-01T09:21:42;97933.91;;;22.63;36.65
11605;BME280;5858;43.076;25.626;2023-04-01T09:24:34;97911.88;;;22.41;34.94
11605;BME280;5858;43.076;25.626;2023-04-01T09:27:13;97930.88;;;22.27;34.99
11605;BME280;5858;43.076;25.626;2023-04-01T09:30:06;97928.63;;;21.87;35.72
11605;BME280;5858;43.076;25.626;2023-04-01T09:32:57;97919.41;;;21.59;35.92
11605;BME280;5858;43.076;25.626;2023-04-01T09:35:39;97921.38;;;21.53;35.93
11605;BME280;5858;43.076;25.626;2023-04-01T09:38:20;97873.44;;;21.33;35.94
11605;BME280;5858;43.076;25.626;2023-04-01T09:40:55;97862.56;;;21.33;36.23
11605;BME280;5858;43.076;25.626;2023-04-01T09:43:28;97892.47;;;21.57;35.78
11605;BME280;5858;43.076;25.626;2023-04-01T09:46:12;97851.16;;;21.26;35.39
11605;BME280;5858;43.076;25.626;2023-04-01T09:52:18;97889.91;;;20.84;36.65
11605;BME280;5858;43.076;25.626;2023-04-01T09:55:15;97833.91;;;20.49;38.22
11605;BME280;5858;43.076;25.626;2023-04-01T09:58:16;97891.38;;;21.00;37.10
11605;BME280;5858;43.076;25.626;2023-04-01T10:01:22;97882.03;;;21.12;35.87
11605;BME280;5858;43.076;25.626;2023-04-01T10:07:33;97887.28;;;21.61;34.66
11605;BME280;5858;43.076;25.626;2023-04-01T10:10:41;97897.28;;;21.89;34.19
11605;BME280;5858;43.076;25.626;2023-04-01T10:13:51;97878.56;;;22.07;33.26
11605;BME280;5858;43.076;25.626;2023-04-01T10:20:00;97909.38;;;22.26;33.92
11605;BME280;5858;43.076;25.626;2023-04-01T10:23:08;97907.91;;;22.34;33.38
11605;BME280;5858;43.076;25.626;2023-04-01T10:26:09;97904.69;;;22.32;33.46
11605;BME280;5858;43.076;25.626;2023-04-01T10:29:08;97817.94;;;21.96;33.44
11605;BME280;5858;43.076;25.626;2023-04-01T10:32:11;97881.75;;;22.51;34.21
11605;BME280;5858;43.076;25.626;2023-04-01T10:38:29;97836.88;;;22.44;33.82
11605;BME280;5858;43.076;25.626;2023-04-01T10:41:29;97840.59;;;22.67;33.47
11605;BME280;5858;43.076;25.626;2023-04-01T10:44:34;97760.31;;;22.08;33.93
11605;BME280;5858;43.076;25.626;2023-04-01T10:53:50;97794.97;;;22.40;33.66
11605;BME280;5858;43.076;25.626;2023-04-01T10:56:46;97794.69;;;22.22;34.49
11605;BME280;5858;43.076;25.626;2023-04-01T11:02:57;97788.69;;;22.58;35.27
11605;BME280;5858;43.076;25.626;2023-04-01T11:12:02;97783.31;;;22.53;35.15
11605;BME280;5858;43.076;25.626;2023-04-01T11:15:06;97701.53;;;22.20;33.91
11605;BME280;5858;43.076;25.626;2023-04-01T11:21:21;97765.59;;;22.18;33.46
11605;BME280;5858;43.076;25.626;2023-04-01T11:27:11;97722.09;;;21.94;35.11
11605;BME280;5858;43.076;25.626;2023-04-01T11:29:57;97732.28;;;22.07;34.62
11605;BME280;5858;43.076;25.626;2023-04-01T11:32:46;97738.28;;;22.23;33.76
11605;BME280;5858;43.076;25.626;2023-04-01T11:35:40;97723.72;;;21.95;33.06
11605;BME280;5858;43.076;25.626;2023-04-01T11:38:26;97740.78;;;22.19;32.78
11605;BME280;5858;43.076;25.626;2023-04-01T11:41:02;97733.50;;;22.34;31.53
11605;BME280;5858;43.076;25.626;2023-04-01T11:43:41;97728.47;;;22.41;32.16
11605;BME280;5858;43.076;25.626;2023-04-01T11:46:17;97680.00;;;22.05;32.95
11605;BME280;5858;43.076;25.626;2023-04-01T11:49:04;97724.75;;;22.50;32.74
11605;BME280;5858;43.076;25.626;2023-04-01T11:51:52;97737.78;;;22.53;32.37
11605;BME280;5858;43.076;25.626;2023-04-01T11:54:51;97720.72;;;22.61;33.87
11605;BME280;5858;43.076;25.626;2023-04-01T11:57:41;97655.72;;;22.22;34.48
11605;BME280;5858;43.076;25.626;2023-04-01T12:00:30;97714.94;;;22.36;34.81
11605;BME280;5858;43.076;25.626;2023-04-01T12:03:15;97711.19;;;22.32;35.71
11605;BME280;5858;43.076;25.626;2023-04-01T12:05:48;97564.53;;;21.17;36.77
11605;BME280;5858;43.076;25.626;2023-04-01T12:08:31;97696.91;;;22.21;37.18
11605;BME280;5858;43.076;25.626;2023-04-01T12:11:10;97689.69;;;22.30;37.05
11605;BME280;5858;43.076;25.626;2023-04-01T12:14:05;97691.72;;;22.38;37.01
11605;BME280;5858;43.076;25.626;2023-04-01T12:17:07;97565.81;;;21.44;37.96
11605;BME280;5858;43.076;25.626;2023-04-01T12:19:53;97688.69;;;22.07;37.23
11605;BME280;5858;43.076;25.626;2023-04-01T12:22:38;97685.38;;;21.91;38.18
11605;BME280;5858;43.076;25.626;2023-04-01T12:25:27;97675.66;;;22.04;39.11
11605;BME280;5858;43.076;25.626;2023-04-01T12:28:09;97663.63;;;22.24;38.51
11605;BME280;5858;43.076;25.626;2023-04-01T12:30:52;97663.16;;;22.36;38.59
11605;BME280;5858;43.076;25.626;2023-04-01T12:36:29;97655.78;;;22.50;36.47
11605;BME280;5858;43.076;25.626;2023-04-01T12:39:15;97633.47;;;22.34;37.12
11605;BME280;5858;43.076;25.626;2023-04-01T12:41:54;97670.03;;;22.60;36.52
11605;BME280;5858;43.076;25.626;2023-04-01T12:44:33;97660.44;;;22.63;36.76
11605;BME280;5858;43.076;25.626;2023-04-01T12:50:21;97648.13;;;22.52;36.54
11605;BME280;5858;43.076;25.626;2023-04-01T12:53:01;97648.13;;;22.66;38.14
11605;BME280;5858;43.076;25.626;2023-04-01T12:55:38;97611.06;;;22.51;38.35
11605;BME280;5858;43.076;25.626;2023-04-01T12:58:37;97636.06;;;22.85;38.10
11605;BME280;5858;43.076;25.626;2023-04-01T13:07:40;97646.63;;;23.01;39.12
11605;BME280;5858;43.076;25.626;2023-04-01T13:10:20;97617.75;;;22.86;38.33
11605;BME280;5858;43.076;25.626;2023-04-01T13:13:00;97580.47;;;22.26;39.99
11605;BME280;5858;43.076;25.626;2023-04-01T13:15:35;97528.72;;;21.48;41.05
11605;BME280;5858;43.076;25.626;2023-04-01T13:18:17;97503.84;;;21.03;41.62
11605;BME280;5858;43.076;25.626;2023-04-01T13:20:54;97627.91;;;21.74;41.92
11605;BME280;5858;43.076;25.626;2023-04-01T13:23:36;97607.13;;;21.46;42.86
11605;BME280;5858;43.076;25.626;2023-04-01T13:26:13;97630.66;;;21.55;42.86
11605;BME280;5858;43.076;25.626;2023-04-01T13:28:49;97615.38;;;21.41;43.03
11605;BME280;5858;43.076;25.626;2023-04-01T13:31:29;97632.66;;;21.50;43.01
11605;BME280;5858;43.076;25.626;2023-04-01T13:34:08;97548.81;;;20.95;43.00
11605;BME280;5858;43.076;25.626;2023-04-01T13:36:50;97618.59;;;21.24;42.97
11605;BME280;5858;43.076;25.626;2023-04-01T13:39:31;97627.38;;;21.16;43.62
11605;BME280;5858;43.076;25.626;2023-04-01T13:42:14;97611.28;;;20.82;41.36
11605;BME280;5858;43.076;25.626;2023-04-01T13:44:46;97595.72;;;20.39;42.51
11605;BME280;5858;43.076;25.626;2023-04-01T13:47:43;97626.13;;;20.12;44.23
11605;BME280;5858;43.076;25.626;2023-04-01T13:50:30;97590.31;;;19.76;45.72
11605;BME280;5858;43.076;25.626;2023-04-01T13:53:30;97603.97;;;19.27;45.68
11605;BME280;5858;43.076;25.626;2023-04-01T13:56:08;97599.03;;;18.95;45.49
11605;BME280;5858;43.076;25.626;2023-04-01T13:59:06;97611.41;;;19.06;46.86
11605;BME280;5858;43.076;25.626;2023-04-01T14:01:43;97618.81;;;18.85;49.44
11605;BME280;5858;43.076;25.626;2023-04-01T14:04:34;97578.03;;;18.62;50.70
11605;BME280;5858;43.076;25.626;2023-04-01T14:07:29;97602.69;;;18.55;50.39
11605;BME280;5858;43.076;25.626;2023-04-01T14:10:17;97598.94;;;18.36;51.39
11605;BME280;5858;43.076;25.626;2023-04-01T14:12:56;97580.63;;;18.07;53.08
11605;BME280;5858;43.076;25.626;2023-04-01T14:15:42;97575.47;;;17.90;53.98
11605;BME280;5858;43.076;25.626;2023-04-01T14:21:21;97589.28;;;17.94;56.67
11605;BME280;5858;43.076;25.626;2023-04-01T14:27:25;97571.59;;;16.85;75.37
11605;BME280;5858;43.076;25.626;2023-04-01T14:30:19;97574.75;;;16.56;77.25
11605;BME280;5858;43.076;25.626;2023-04-01T14:32:54;97531.94;;;15.76;79.59
11605;BME280;5858;43.076;25.626;2023-04-01T14:35:34;97581.78;;;15.68;80.55
11605;BME280;5858;43.076;25.626;2023-04-01T14:38:27;97612.47;;;15.62;83.98
11605;BME280;5858;43.076;25.626;2023-04-01T14:41:06;97626.03;;;15.45;85.21
11605;BME280;5858;43.076;25.626;2023-04-01T14:44:18;97662.66;;;15.41;88.53
11605;BME280;5858;43.076;25.626;2023-04-01T14:47:17;97665.47;;;15.02;90.57
11605;BME280;5858;43.076;25.626;2023-04-01T14:49:53;97646.38;;;14.60;88.71
11605;BME280;5858;43.076;25.626;2023-04-01T14:52:26;97710.50;;;14.85;92.25
11605;BME280;5858;43.076;25.626;2023-04-01T14:54:56;97724.19;;;14.62;88.70
11605;BME280;5858;43.076;25.626;2023-04-01T14:57:25;97757.59;;;14.83;88.58
11605;BME280;5858;43.076;25.626;2023-04-01T15:00:00;97779.75;;;14.51;89.57
11605;BME280;5858;43.076;25.626;2023-04-01T15:05:29;97823.38;;;13.91;96.30